Time;durP1;ratioP1;P1;durP2;ratioP2;P2;SDS_P1;SDS_P2;PMS_P1;PMS_P2;Temp;Humidity;BMP_temperature;BMP_pressure;BME280_temperature;BME280_humidity;BME280_pressure;Samples;Min_cycle;Max_cycle;Signal;HPM_P1;HPM_P2
2022/04/21 00:00:50;;;;;;;;;;;4.70;99.90;;;;;;4929841;28;20500;-61
2022/04/21 00:03:17;;;;;;;;;;;4.70;99.90;;;;;;4926587;28;19965;-61
2022/04/21 00:05:44;;;;;;;;;;;4.60;99.90;;;;;;4931567;28;19949;-61
2022/04/21 00:08:15;;;;;;;;;;;4.60;99.90;;;;;;4930148;28;20099;-61
2022/04/21 00:10:42;;;;;;;;;;;4.60;99.90;;;;;;4932511;28;20394;-61
2022/04/21 00:13:09;;;;;;;;;;;4.50;99.90;;;;;;4926776;28;19933;-61
2022/04/21 00:15:35;;;;;;;;;;;4.50;99.90;;;;;;4927139;28;19929;-61
2022/04/21 00:18:02;;;;;;;;;;;4.50;99.90;;;;;;4958265;28;19948;-61
2022/04/21 00:20:29;;;;;;;;;;;4.50;99.90;;;;;;4928741;28;19922;-63
2022/04/21 00:25:41;;;;;;;;;;;4.40;99.90;;;;;;4930940;28;19922;-63
2022/04/21 00:28:08;;;;;;;;;;;4.40;99.90;;;;;;4932376;28;19921;-64
2022/04/21 00:30:36;;;;;;;;;;;4.40;99.90;;;;;;4925986;28;20069;-63
2022/04/21 00:33:03;;;;;;;;;;;4.40;99.90;;;;;;4927662;28;20643;-64
2022/04/21 00:35:30;;;;;;;;;;;4.30;99.90;;;;;;4930569;28;20087;-63
2022/04/21 00:37:57;;;;;;;;;;;4.40;99.90;;;;;;4925760;28;20451;-63
2022/04/21 00:40:28;;;;;;;;;;;4.30;99.90;;;;;;4927215;28;20511;-64
2022/04/21 00:42:55;;;;;;;;;;;4.30;99.90;;;;;;4928898;28;20533;-63
2022/04/21 00:45:22;;;;;;;;;;;4.30;99.90;;;;;;4928383;28;20551;-63
2022/04/21 00:47:50;;;;;;;;;;;4.30;99.90;;;;;;4929386;28;20427;-63
2022/04/21 00:50:17;;;;;;;;;;;4.30;99.90;;;;;;4930055;28;20444;-63
2022/04/21 00:52:45;;;;;;;;;;;4.30;99.90;;;;;;4927237;28;20146;-64
2022/04/21 00:55:12;;;;;;;;;;;4.30;99.90;;;;;;4928021;28;20100;-63
2022/04/21 00:57:41;;;;;;;;;;;4.20;99.90;;;;;;4929187;28;20028;-64
2022/04/21 01:00:09;;;;;;;;;;;4.20;99.90;;;;;;4927897;28;20301;-62
2022/04/21 01:02:52;;;;;;;;;;;4.20;99.90;;;;;;4929013;28;19987;-62
2022/04/21 01:05:28;;;;;;;;;;;4.10;99.90;;;;;;4929949;28;20306;-62
2022/04/21 01:07:56;;;;;;;;;;;4.00;99.90;;;;;;4931788;28;20450;-62
2022/04/21 01:10:24;;;;;;;;;;;4.00;99.90;;;;;;4931832;28;20695;-63
2022/04/21 01:12:51;;;;;;;;;;;4.00;99.90;;;;;;4925763;28;20024;-62
2022/04/21 01:15:18;;;;;;;;;;;3.90;99.90;;;;;;4926584;28;20014;-62
2022/04/21 01:17:48;;;;;;;;;;;3.90;99.90;;;;;;4925604;28;20250;-62
2022/04/21 01:20:15;;;;;;;;;;;3.90;99.90;;;;;;4927083;28;19937;-63
2022/04/21 01:22:42;;;;;;;;;;;3.90;99.90;;;;;;4929067;28;19922;-63
2022/04/21 01:25:10;;;;;;;;;;;3.90;99.90;;;;;;4928377;28;20043;-62
2022/04/21 01:27:38;;;;;;;;;;;3.90;99.90;;;;;;4932432;28;19921;-63
2022/04/21 01:30:09;;;;;;;;;;;3.90;99.90;;;;;;4927504;28;19929;-62
2022/04/21 01:32:36;;;;;;;;;;;3.90;99.90;;;;;;4926837;28;20019;-62
2022/04/21 01:35:04;;;;;;;;;;;3.90;99.90;;;;;;4926766;28;19922;-62
2022/04/21 01:43:02;;;;;;;;;;;3.80;99.90;;;;;;4928560;28;19922;-62
2022/04/21 01:45:29;;;;;;;;;;;3.70;99.90;;;;;;4926029;28;20565;-62
2022/04/21 01:47:56;;;;;;;;;;;3.70;99.90;;;;;;4928619;28;20612;-61
2022/04/21 01:50:24;;;;;;;;;;;3.70;99.90;;;;;;4929965;28;19922;-62
2022/04/21 01:52:51;;;;;;;;;;;3.60;99.90;;;;;;4927218;28;19921;-62
2022/04/21 01:55:18;;;;;;;;;;;3.60;99.90;;;;;;4929909;28;20875;-62
2022/04/21 01:57:45;;;;;;;;;;;3.60;99.90;;;;;;4927129;28;19937;-62
2022/04/21 02:00:12;;;;;;;;;;;3.60;99.90;;;;;;4941850;28;19963;-62
2022/04/21 02:02:39;;;;;;;;;;;3.60;99.90;;;;;;4928296;28;19932;-62
2022/04/21 02:05:07;;;;;;;;;;;3.60;99.90;;;;;;4927979;28;20083;-62
2022/04/21 02:07:36;;;;;;;;;;;3.60;99.90;;;;;;4930417;28;19957;-62
2022/04/21 02:10:05;;;;;;;;;;;3.60;99.90;;;;;;4927927;28;20191;-63
2022/04/21 02:12:33;;;;;;;;;;;3.60;99.90;;;;;;4930309;28;20040;-62
2022/04/21 02:15:01;;;;;;;;;;;3.60;99.90;;;;;;4926451;28;20466;-63
2022/04/21 02:17:30;;;;;;;;;;;3.50;99.90;;;;;;4933082;28;20035;-62
2022/04/21 02:19:57;;;;;;;;;;;3.50;99.90;;;;;;4932993;28;19937;-60
2022/04/21 02:22:23;;;;;;;;;;;3.50;99.90;;;;;;4930481;28;19957;-61
2022/04/21 02:24:50;;;;;;;;;;;3.40;99.90;;;;;;4933211;28;19928;-60
2022/04/21 02:27:17;;;;;;;;;;;3.40;99.90;;;;;;4931702;28;19995;-60
2022/04/21 02:29:44;;;;;;;;;;;3.40;99.90;;;;;;4966579;28;19933;-60
2022/04/21 02:32:11;;;;;;;;;;;3.40;99.90;;;;;;4930474;28;19921;-60
2022/04/21 02:34:38;;;;;;;;;;;3.30;99.90;;;;;;4931716;28;20040;-61
2022/04/21 02:37:05;;;;;;;;;;;3.30;99.90;;;;;;4929131;28;19968;-60
2022/04/21 02:39:32;;;;;;;;;;;3.30;99.90;;;;;;4932188;28;20203;-60
2022/04/21 02:42:00;;;;;;;;;;;3.30;99.90;;;;;;4933635;28;19932;-60
2022/04/21 02:44:27;;;;;;;;;;;3.30;99.90;;;;;;4930373;28;20694;-60
2022/04/21 02:46:54;;;;;;;;;;;3.20;99.90;;;;;;4929532;28;20246;-60
2022/04/21 02:49:21;;;;;;;;;;;3.20;99.90;;;;;;4928920;28;20028;-61
2022/04/21 02:51:48;;;;;;;;;;;3.20;99.90;;;;;;4933079;28;20549;-60
2022/04/21 02:59:50;;;;;;;;;;;3.10;99.90;;;;;;4935765;28;19925;-60
2022/04/21 03:02:18;;;;;;;;;;;3.10;99.90;;;;;;4925047;28;20099;-60
2022/04/21 03:04:46;;;;;;;;;;;3.10;99.90;;;;;;4928515;28;19922;-60
2022/04/21 03:07:14;;;;;;;;;;;3.10;99.90;;;;;;4927163;28;20036;-61
2022/04/21 03:09:40;;;;;;;;;;;3.00;99.90;;;;;;4932544;28;20090;-60
2022/04/21 03:12:08;;;;;;;;;;;3.10;99.90;;;;;;4931615;28;20648;-60
2022/04/21 03:14:36;;;;;;;;;;;3.00;99.90;;;;;;4962017;28;20273;-60
2022/04/21 03:17:07;;;;;;;;;;;3.00;99.90;;;;;;4921846;28;20412;-60
2022/04/21 03:19:35;;;;;;;;;;;3.00;99.90;;;;;;4929454;28;20086;-59
2022/04/21 03:24:48;;;;;;;;;;;2.90;99.90;;;;;;4929326;28;20477;-60
2022/04/21 03:27:15;;;;;;;;;;;2.90;99.90;;;;;;4930463;28;19921;-60
2022/04/21 03:29:42;;;;;;;;;;;2.80;99.90;;;;;;4932485;28;19922;-60
2022/04/21 03:32:10;;;;;;;;;;;2.80;99.90;;;;;;4930551;28;20472;-60
2022/04/21 03:34:40;;;;;;;;;;;2.80;99.90;;;;;;4930582;28;19970;-60
2022/04/21 03:37:07;;;;;;;;;;;2.80;99.90;;;;;;4928860;28;19933;-60
2022/04/21 03:39:35;;;;;;;;;;;2.80;99.90;;;;;;4930056;28;19928;-60
2022/04/21 03:42:06;;;;;;;;;;;2.70;99.90;;;;;;4929488;28;19922;-60
2022/04/21 03:44:33;;;;;;;;;;;2.70;99.90;;;;;;4931459;28;19922;-60
2022/04/21 03:47:00;;;;;;;;;;;2.70;99.90;;;;;;4928761;28;20020;-60
2022/04/21 03:49:28;;;;;;;;;;;2.70;99.90;;;;;;4912153;28;20203;-59
2022/04/21 03:51:56;;;;;;;;;;;2.60;99.90;;;;;;4944454;28;19921;-59
2022/04/21 03:54:23;;;;;;;;;;;2.60;99.90;;;;;;4925789;28;19921;-60
2022/04/21 03:56:50;;;;;;;;;;;2.60;99.90;;;;;;4929558;28;20064;-60
2022/04/21 03:59:18;;;;;;;;;;;2.60;99.90;;;;;;4929497;28;20471;-61
2022/04/21 04:01:45;;;;;;;;;;;2.60;99.90;;;;;;4932523;28;20694;-60
2022/04/21 04:04:12;;;;;;;;;;;2.60;99.90;;;;;;4908798;28;20161;-60
2022/04/21 04:12:11;;;;;;;;;;;2.60;99.90;;;;;;4929023;28;20142;-60
2022/04/21 04:14:38;;;;;;;;;;;2.70;99.90;;;;;;4932620;28;19930;-61
2022/04/21 04:17:06;;;;;;;;;;;2.70;99.90;;;;;;4927453;28;20031;-61
2022/04/21 04:19:33;;;;;;;;;;;2.70;99.90;;;;;;4924920;28;20792;-61
2022/04/21 04:22:02;;;;;;;;;;;2.60;99.90;;;;;;4908208;28;19922;-61
2022/04/21 04:24:29;;;;;;;;;;;2.60;99.90;;;;;;4913704;28;19966;-60
2022/04/21 04:26:56;;;;;;;;;;;2.60;99.90;;;;;;4910231;28;19921;-60
2022/04/21 04:29:23;;;;;;;;;;;2.50;99.90;;;;;;4943792;28;21338;-61
2022/04/21 04:31:51;;;;;;;;;;;2.50;99.90;;;;;;4908151;28;20135;-61
2022/04/21 04:34:19;;;;;;;;;;;2.50;99.90;;;;;;4911267;28;19933;-60
2022/04/21 04:36:46;;;;;;;;;;;2.50;99.90;;;;;;4910625;28;20037;-61
2022/04/21 04:39:13;;;;;;;;;;;2.50;99.90;;;;;;4927222;28;19952;-53
2022/04/21 04:44:27;;;;;;;;;;;2.40;99.90;;;;;;4922059;28;20000;-54
2022/04/21 04:46:54;;;;;;;;;;;2.40;99.90;;;;;;4930927;28;20138;-53
2022/04/21 04:49:21;;;;;;;;;;;2.50;99.90;;;;;;4927505;28;20242;-60
2022/04/21 04:51:48;;;;;;;;;;;2.50;99.90;;;;;;4926547;28;20249;-60
2022/04/21 04:54:15;;;;;;;;;;;2.50;99.90;;;;;;4926212;28;20692;-61
2022/04/21 04:56:45;;;;;;;;;;;2.60;99.90;;;;;;4926103;28;20150;-61
2022/04/21 04:59:12;;;;;;;;;;;2.60;99.90;;;;;;4931873;28;20435;-60
2022/04/21 05:01:43;;;;;;;;;;;2.70;99.90;;;;;;4930164;28;19921;-60
2022/04/21 05:04:15;;;;;;;;;;;2.70;99.90;;;;;;4930698;28;19922;-59
2022/04/21 05:06:49;;;;;;;;;;;2.70;99.90;;;;;;4938187;28;19921;-60
2022/04/21 05:09:17;;;;;;;;;;;2.80;99.90;;;;;;4945860;28;19925;-61
2022/04/21 05:11:46;;;;;;;;;;;2.90;99.90;;;;;;4947344;28;19932;-60
2022/04/21 05:14:14;;;;;;;;;;;2.90;99.90;;;;;;4944554;28;19987;-62
2022/04/21 05:16:41;;;;;;;;;;;2.90;99.90;;;;;;4934474;28;20024;-60
2022/04/21 05:19:08;;;;;;;;;;;3.00;99.90;;;;;;4920049;28;20054;-61
2022/04/21 05:21:35;;;;;;;;;;;3.00;99.90;;;;;;4926505;28;19922;-64
2022/04/21 05:24:03;;;;;;;;;;;3.10;99.90;;;;;;4907998;28;19922;-60
2022/04/21 05:26:31;;;;;;;;;;;3.10;99.90;;;;;;4921610;28;19962;-61
2022/04/21 05:28:59;;;;;;;;;;;3.20;99.90;;;;;;4912883;28;20100;-61
2022/04/21 05:31:26;;;;;;;;;;;3.30;99.90;;;;;;4911123;28;19929;-57
2022/04/21 05:35:59;;;;;;;16.10;10.23;;;3.40;99.90;;;;;;5081895;27;20128;-60
2022/04/21 05:38:27;;;;;;;16.15;11.38;;;3.40;99.90;;;;;;5062143;27;20285;-60
2022/04/21 05:40:55;;;;;;;17.30;11.80;;;3.50;99.90;;;;;;5061999;27;20098;-58
2022/04/21 05:43:36;;;;;;;21.17;11.75;;;3.60;99.90;;;;;;5012192;28;20857;-57
2022/04/21 05:46:03;;;;;;;21.85;12.15;;;3.70;99.90;;;;;;4982423;28;20056;-57
2022/04/21 05:48:31;;;;;;;17.25;11.10;;;3.80;99.90;;;;;;4982486;28;20056;-58
2022/04/21 05:50:59;;;;;;;18.58;12.48;;;3.90;99.90;;;;;;4985797;28;20138;-55
2022/04/21 05:53:27;;;;;;;16.55;11.43;;;4.00;99.90;;;;;;5000123;28;20052;-56
2022/04/21 05:55:54;;;;;;;16.77;11.43;;;4.10;99.90;;;;;;4986534;28;20052;-56
2022/04/21 05:58:25;;;;;;;17.85;11.80;;;4.20;99.90;;;;;;4985387;28;20052;-57
2022/04/21 06:00:53;;;;;;;16.35;11.70;;;4.30;99.90;;;;;;4985831;28;20146;-58
2022/04/21 06:03:26;;;;;;;18.27;12.77;;;4.40;99.90;;;;;;4982465;28;20037;-55
2022/04/21 06:05:53;;;;;;;25.75;13.10;;;4.50;99.90;;;;;;4983583;28;20049;-58
2022/04/21 06:08:20;;;;;;;21.42;11.90;;;4.60;99.90;;;;;;4984680;28;20052;-57
2022/04/21 06:10:47;;;;;;;16.48;11.18;;;4.70;99.90;;;;;;4983989;28;20045;-56
2022/04/21 06:13:15;;;;;;;18.17;11.85;;;4.80;99.90;;;;;;4985228;28;20363;-55
2022/04/21 06:15:43;;;;;;;17.83;10.98;;;4.90;99.90;;;;;;4984589;28;20038;-55
2022/04/21 06:18:10;;;;;;;18.13;12.73;;;5.00;99.90;;;;;;4984120;28;20045;-62
2022/04/21 06:20:37;;;;;;;16.58;10.65;;;5.20;99.90;;;;;;4972022;28;20102;-57
2022/04/21 06:23:05;;;;;;;16.48;11.93;;;5.30;99.90;;;;;;4964424;28;20587;-57
2022/04/21 06:25:40;;;;;;;16.77;11.55;;;5.40;99.90;;;;;;4968218;28;20049;-55
2022/04/21 06:28:07;;;;;;;16.20;10.48;;;5.60;99.90;;;;;;4960089;28;20050;-54
2022/04/21 06:30:34;;;;;;;17.17;10.88;;;5.70;99.90;;;;;;4964116;28;20069;-54
2022/04/21 06:33:02;;;;;;;16.70;10.90;;;5.90;99.90;;;;;;4962910;28;20077;-54
2022/04/21 06:35:30;;;;;;;17.63;11.65;;;6.00;99.90;;;;;;4960332;28;20041;-56
2022/04/21 06:37:58;;;;;;;21.25;12.98;;;6.10;99.90;;;;;;4980260;28;20538;-56
2022/04/21 06:40:25;;;;;;;18.80;11.82;;;6.20;99.90;;;;;;4992417;28;20539;-54
2022/04/21 06:42:52;;;;;;;17.38;10.80;;;6.30;99.90;;;;;;4972555;28;20775;-56
2022/04/21 06:48:06;;;;;;;15.32;10.23;;;6.50;99.90;;;;;;4986487;28;20842;-57
2022/04/21 06:50:38;;;;;;;14.38;10.82;;;6.60;99.90;;;;;;4968788;28;20040;-58
2022/04/21 06:53:07;;;;;;;19.05;10.40;;;6.80;99.90;;;;;;4951436;28;20547;-65
2022/04/21 06:55:35;;;;;;;15.90;10.50;;;6.90;99.90;;;;;;4969521;28;20046;-55
2022/04/21 06:58:02;;;;;;;15.48;10.40;;;7.10;99.90;;;;;;4967285;28;20152;-54
2022/04/21 07:00:29;;;;;;;16.58;10.00;;;7.20;99.90;;;;;;4967085;28;20037;-55
2022/04/21 07:02:58;;;;;;;16.60;10.73;;;7.30;99.90;;;;;;4967124;28;20120;-55
2022/04/21 07:05:27;;;;;;;14.30;9.70;;;7.40;99.90;;;;;;4972045;28;20052;-58
2022/04/21 07:07:54;;;;;;;18.58;11.35;;;7.60;99.90;;;;;;4966570;28;20053;-58
2022/04/21 07:10:21;;;;;;;16.02;9.57;;;7.70;99.90;;;;;;4972531;28;20054;-59
2022/04/21 07:12:48;;;;;;;16.80;10.10;;;7.90;99.90;;;;;;4971621;28;20878;-59
2022/04/21 07:15:17;;;;;;;14.23;9.25;;;8.10;99.90;;;;;;4971717;28;20150;-60
2022/04/21 07:17:44;;;;;;;15.90;9.18;;;8.20;99.90;;;;;;4971311;28;20045;-59
2022/04/21 07:20:12;;;;;;;13.65;9.63;;;8.40;99.90;;;;;;4970272;28;20053;-59
2022/04/21 07:22:39;;;;;;;13.27;9.70;;;8.50;99.90;;;;;;4946647;28;20046;-65
2022/04/21 07:25:09;;;;;;;18.80;9.68;;;8.70;99.90;;;;;;4950484;28;20042;-60
2022/04/21 07:27:37;;;;;;;17.10;9.98;;;8.80;99.90;;;;;;4947503;28;20209;-59
2022/04/21 07:30:06;;;;;;;15.15;9.80;;;8.90;99.90;;;;;;4947815;28;20536;-58
2022/04/21 07:32:33;;;;;;;14.30;10.40;;;9.10;99.90;;;;;;4952318;28;20555;-57
2022/04/21 07:35:00;;;;;;;17.88;10.52;;;9.30;99.90;;;;;;4953406;28;20037;-55
2022/04/21 07:37:30;;;;;;;24.75;11.38;;;9.40;99.90;;;;;;4949588;28;20049;-54
2022/04/21 07:39:57;;;;;;;44.75;11.50;;;9.60;99.90;;;;;;4967997;28;20051;-57
2022/04/21 07:42:25;;;;;;;18.83;10.85;;;9.70;99.90;;;;;;4987635;28;20044;-56
2022/04/21 07:44:52;;;;;;;18.77;11.10;;;9.90;99.90;;;;;;4963690;28;20147;-57
2022/04/21 07:47:19;;;;;;;;;;;10.20;99.90;;;;;;4970750;28;20565;-58
2022/04/21 07:49:46;;;;;;;19.58;11.27;;;10.70;99.90;;;;;;4969592;28;19932;-57
2022/04/21 07:55:14;;;;;;;;;;;12.00;99.20;;;;;;4971106;28;20068;-63
2022/04/21 07:57:45;;;;;;;23.23;11.43;;;12.60;97.80;;;;;;4967204;28;20194;-62
2022/04/21 08:00:15;;;;;;;20.73;11.07;;;13.10;96.40;;;;;;4966547;28;20138;-56
2022/04/21 08:02:44;;;;;;;23.15;11.70;;;13.50;92.20;;;;;;4971078;28;20037;-57
2022/04/21 08:05:14;;;;;;;22.27;10.65;;;13.70;90.90;;;;;;4967629;28;20613;-55
2022/04/21 08:07:41;;;;;;;16.98;11.38;;;13.90;88.30;;;;;;4968808;28;20041;-57
2022/04/21 08:10:10;;;;;;;18.08;10.25;;;14.10;88.70;;;;;;4965852;28;20144;-58
2022/04/21 08:12:42;;;;;;;18.50;10.27;;;14.40;85.30;;;;;;4966685;28;20811;-59
2022/04/21 08:15:11;;;;;;;17.42;10.80;;;14.70;83.30;;;;;;4971909;28;20753;-57
2022/04/21 08:17:39;;;;;;;28.08;11.88;;;14.80;81.10;;;;;;4972330;28;20408;-58
2022/04/21 08:20:09;;;;;;;17.80;10.57;;;15.00;77.60;;;;;;4991551;28;20106;-59
2022/04/21 08:22:36;;;;;;;19.30;10.98;;;15.10;71.80;;;;;;4957470;28;20144;-57
2022/04/21 08:34:20;;;;;;;11.68;9.40;;;15.20;66.90;;;;;;4948145;28;20323;-59
2022/04/21 08:36:52;;;;;;;14.75;8.68;;;15.30;66.10;;;;;;4950116;28;20034;-59
2022/04/21 08:39:20;;;;;;;20.42;9.63;;;15.50;65.20;;;;;;4952656;28;20849;-58
2022/04/21 08:41:52;;;;;;;11.52;8.13;;;15.60;62.80;;;;;;4965643;28;20347;-58
2022/04/21 08:44:20;;;;;;;14.57;9.63;;;15.80;62.10;;;;;;4981349;28;20873;-57
2022/04/21 08:46:49;;;;;;;16.42;10.13;;;15.90;63.70;;;;;;4987130;28;20049;-57
2022/04/21 08:49:19;;;;;;;15.95;9.82;;;16.10;64.40;;;;;;4970328;28;20048;-60
2022/04/21 08:51:47;;;;;;;13.77;9.70;;;16.30;62.10;;;;;;4965787;28;20049;-65
2022/04/21 08:54:14;;;;;;;12.60;8.82;;;16.30;62.60;;;;;;4969888;28;20049;-58
2022/04/21 08:56:41;;;;;;;13.95;9.45;;;16.40;59.80;;;;;;4966893;28;20507;-60
2022/04/21 08:59:08;;;;;;;14.10;9.80;;;16.40;59.60;;;;;;4966658;28;20041;-59
2022/04/21 09:01:36;;;;;;;12.20;9.05;;;16.40;58.80;;;;;;4966929;28;20033;-59
2022/04/21 09:04:03;;;;;;;13.63;9.25;;;16.40;59.70;;;;;;4965035;28;20160;-58
2022/04/21 09:06:30;;;;;;;14.63;10.10;;;16.40;62.60;;;;;;4968250;28;20373;-61
2022/04/21 09:09:21;;;;;;;14.48;9.65;;;16.60;59.60;;;;;;4967360;28;20167;-60
2022/04/21 09:11:56;;;;;;;18.33;10.45;;;16.70;59.70;;;;;;4965193;28;20041;-59
2022/04/21 09:14:23;;;;;;;12.15;9.52;;;16.80;58.40;;;;;;4967593;28;20041;-58
2022/04/21 09:16:50;;;;;;;15.65;10.00;;;16.70;59.10;;;;;;4962863;28;20161;-58
2022/04/21 09:19:17;;;;;;;13.13;9.32;;;16.60;59.40;;;;;;4956727;28;20536;-59
2022/04/21 09:21:44;;;;;;;10.65;8.73;;;16.70;60.10;;;;;;4986064;28;20037;-58
2022/04/21 09:24:25;;;;;;;12.48;9.57;;;16.80;58.70;;;;;;4946032;28;20026;-59
2022/04/21 09:26:56;;;;;;;12.57;9.18;;;16.80;56.80;;;;;;4959556;28;20397;-59
2022/04/21 09:29:29;;;;;;;10.02;8.93;;;16.90;57.10;;;;;;4948619;28;20223;-59
2022/04/21 09:32:06;;;;;;;14.40;9.40;;;17.00;57.90;;;;;;4946952;28;20045;-59
2022/04/21 09:34:36;;;;;;;14.38;9.57;;;17.10;57.00;;;;;;4949220;28;20786;-60
2022/04/21 09:37:06;;;;;;;13.25;10.02;;;17.00;57.20;;;;;;4956579;28;20034;-59
2022/04/21 09:39:52;;;;;;;16.17;9.98;;;16.80;56.00;;;;;;4957034;28;20349;-59
2022/04/21 09:42:26;;;;;;;12.20;9.93;;;16.60;56.90;;;;;;4989801;28;20052;-60
2022/04/21 09:47:56;;;;;;;12.70;8.85;;;16.70;57.80;;;;;;4963774;28;20382;-58
2022/04/21 09:50:25;;;;;;;10.68;8.88;;;16.90;56.90;;;;;;4965086;28;20491;-55
2022/04/21 09:52:53;;;;;;;21.63;8.88;;;17.10;58.70;;;;;;4968798;28;20065;-65
2022/04/21 09:55:25;;;;;;;16.35;9.45;;;17.30;57.50;;;;;;4966273;28;20547;-59
2022/04/21 09:58:07;;;;;;;10.23;9.10;;;17.50;58.00;;;;;;4969375;28;20120;-60
2022/04/21 10:00:36;;;;;;;10.10;8.07;;;17.70;57.20;;;;;;4965352;28;20045;-59
2022/04/21 10:03:04;;;;;;;16.23;8.82;;;17.80;57.00;;;;;;4963193;28;20761;-59
2022/04/21 10:05:33;;;;;;;12.93;9.02;;;18.10;56.90;;;;;;4963722;28;20569;-59
2022/04/21 10:08:02;;;;;;;14.35;9.90;;;18.10;54.50;;;;;;4962697;28;20574;-59
2022/04/21 10:10:31;;;;;;;11.82;8.32;;;18.20;54.60;;;;;;4967231;28;20052;-60
2022/04/21 10:13:00;;;;;;;14.57;8.75;;;18.30;53.70;;;;;;4966196;28;20593;-59
2022/04/21 10:15:28;;;;;;;14.95;9.38;;;18.40;52.60;;;;;;4968478;28;20029;-60
2022/04/21 10:17:56;;;;;;;16.55;9.00;;;18.50;51.70;;;;;;4958971;28;20716;-61
2022/04/21 10:20:24;;;;;;;13.45;8.68;;;18.60;52.10;;;;;;4986734;28;20072;-58
2022/04/21 10:22:52;;;;;;;12.18;8.00;;;18.60;51.70;;;;;;4989536;28;20115;-58
2022/04/21 10:25:22;;;;;;;13.50;8.98;;;18.70;52.20;;;;;;4947950;28;20823;-57
2022/04/21 10:27:49;;;;;;;12.65;7.90;;;18.70;53.30;;;;;;4950773;28;20046;-57
2022/04/21 10:30:29;;;;;;;11.30;8.90;;;18.80;52.90;;;;;;4950994;28;20811;-58
2022/04/21 10:32:59;;;;;;;9.80;7.75;;;18.80;52.80;;;;;;4950313;28;20048;-59
2022/04/21 10:35:29;;;;;;;14.50;9.80;;;18.70;52.60;;;;;;4949908;28;20042;-59
2022/04/21 10:38:14;;;;;;;13.75;8.70;;;18.70;52.20;;;;;;4966191;28;20042;-57
2022/04/21 10:41:02;;;;;;;9.73;8.10;;;18.60;52.10;;;;;;4963542;28;20052;-59
2022/04/21 10:43:53;;;;;;;13.13;8.65;;;18.40;50.70;;;;;;4976067;28;20068;-55
2022/04/21 10:46:29;;;;;;;14.77;8.88;;;18.30;54.60;;;;;;4979091;28;20062;-57
2022/04/21 10:48:59;;;;;;;10.50;7.80;;;18.40;53.50;;;;;;4972193;28;20049;-56
2022/04/21 10:57:36;;;;;;;13.05;9.55;;;18.60;53.00;;;;;;4981954;28;20088;-60
2022/04/21 11:00:09;;;;;;;20.20;9.80;;;18.80;52.80;;;;;;4981603;28;20060;-57
2022/04/21 11:02:41;;;;;;;13.50;9.50;;;18.80;52.70;;;;;;4983935;28;20033;-58
2022/04/21 11:05:44;;;;;;;15.52;10.07;;;19.00;53.50;;;;;;4982982;28;20115;-59
2022/04/21 11:08:17;;;;;;;11.85;9.00;;;19.10;51.40;;;;;;5000036;28;20152;-61
2022/04/21 11:10:44;;;;;;;21.67;9.75;;;19.10;52.40;;;;;;4964532;28;20280;-58
2022/04/21 11:13:14;;;;;;;20.42;10.10;;;19.10;51.20;;;;;;4980650;28;20044;-59
2022/04/21 11:15:44;;;;;;;14.88;9.93;;;18.90;51.40;;;;;;4991085;28;20550;-58
2022/04/21 11:18:21;;;;;;;16.05;11.05;;;18.90;50.80;;;;;;4976470;28;20344;-60
2022/04/21 11:20:50;;;;;;;19.27;12.10;;;18.80;50.40;;;;;;4986371;28;20225;-60
2022/04/21 11:23:29;;;;;;;21.40;10.50;;;18.70;50.90;;;;;;4956098;28;20202;-60
2022/04/21 11:26:07;;;;;;;12.30;9.30;;;18.60;50.00;;;;;;4950572;28;20191;-61
2022/04/21 11:28:34;;;;;;;12.55;9.55;;;18.60;49.00;;;;;;4950723;28;20038;-61
2022/04/21 11:31:03;;;;;;;14.70;8.95;;;18.70;51.70;;;;;;4951784;28;20276;-61
2022/04/21 11:33:31;;;;;;;11.70;9.52;;;18.90;49.80;;;;;;4959210;28;20054;-62
2022/04/21 11:36:09;;;;;;;12.80;9.68;;;19.00;50.20;;;;;;4971085;28;20052;-60
2022/04/21 11:38:52;;;;;;;16.95;11.57;;;19.10;50.10;;;;;;4964336;28;20042;-59
2022/04/21 11:41:19;;;;;;;11.02;9.00;;;19.20;49.80;;;;;;4981839;28;20056;-60
2022/04/21 11:43:47;;;;;;;14.95;10.07;;;19.20;49.50;;;;;;4978199;28;20040;-61
2022/04/21 11:46:15;;;;;;;13.18;9.57;;;19.30;48.80;;;;;;4967211;28;20053;-61
2022/04/21 11:48:43;;;;;;;15.02;9.40;;;19.40;48.80;;;;;;4967616;28;20194;-61
2022/04/21 11:51:11;;;;;;;15.27;10.63;;;19.40;47.60;;;;;;4967641;28;20556;-61
2022/04/21 11:53:41;;;;;;;14.35;9.00;;;19.50;48.20;;;;;;4966884;28;20053;-60
2022/04/21 11:56:10;;;;;;;11.48;9.13;;;19.50;50.20;;;;;;4969900;28;20300;-60
2022/04/21 11:58:41;;;;;;;16.23;9.52;;;19.60;47.60;;;;;;4964510;28;20893;-60
2022/04/21 12:06:48;;;;;;;11.48;8.70;;;20.10;45.50;;;;;;4965148;28;20222;-61
2022/04/21 12:09:41;;;;;;;12.85;9.25;;;20.00;46.50;;;;;;4970747;28;20130;-60
2022/04/21 12:12:10;;;;;;;14.02;9.05;;;20.10;45.20;;;;;;4967550;28;20053;-62
2022/04/21 12:14:43;;;;;;;12.40;9.73;;;20.10;46.40;;;;;;4966974;28;20041;-61
2022/04/21 12:17:11;;;;;;;18.60;10.52;;;19.90;45.60;;;;;;4962262;28;20053;-61
2022/04/21 12:19:42;;;;;;;15.75;10.23;;;19.90;45.70;;;;;;4976035;28;20820;-61
2022/04/21 12:22:13;;;;;;;14.20;10.02;;;19.90;46.70;;;;;;4992890;28;20041;-61
2022/04/21 12:24:41;;;;;;;15.60;10.32;;;19.90;46.00;;;;;;4987649;28;20800;-61
2022/04/21 12:27:15;;;;;;;18.13;10.30;;;19.90;45.90;;;;;;4960286;28;20034;-60
2022/04/21 12:29:51;;;;;;;13.45;9.70;;;19.90;43.80;;;;;;4949872;28;20220;-61
2022/04/21 12:32:28;;;;;;;12.33;8.60;;;19.80;43.40;;;;;;4951116;28;20038;-60
2022/04/21 12:35:02;;;;;;;12.55;9.32;;;19.80;45.40;;;;;;4945332;28;20457;-60
2022/04/21 12:37:40;;;;;;;12.57;8.90;;;20.00;45.30;;;;;;4945202;28;20511;-59
2022/04/21 12:40:14;;;;;;;14.02;9.45;;;20.10;44.20;;;;;;4960574;28;20384;-60
2022/04/21 12:42:47;;;;;;;15.32;10.85;;;20.30;45.50;;;;;;4966466;28;20880;-59
2022/04/21 12:45:16;;;;;;;14.95;8.55;;;20.40;43.10;;;;;;4950635;28;20337;-59
2022/04/21 12:47:48;;;;;;;15.07;9.23;;;20.40;43.90;;;;;;4966351;28;20045;-59
2022/04/21 12:50:25;;;;;;;17.50;10.45;;;20.60;44.70;;;;;;4966300;28;20546;-59
2022/04/21 12:52:56;;;;;;;11.63;8.80;;;20.80;42.80;;;;;;4948799;28;20045;-61
2022/04/21 12:55:30;;;;;;;12.82;9.07;;;20.70;41.00;;;;;;4966627;28;20894;-61
2022/04/21 12:58:09;;;;;;;10.77;8.23;;;20.80;44.10;;;;;;4964087;28;20191;-60
2022/04/21 13:00:42;;;;;;;13.75;9.43;;;20.90;42.10;;;;;;4985272;28;20037;-60
2022/04/21 13:03:14;;;;;;;18.08;9.00;;;20.90;41.30;;;;;;4968296;28;20061;-60
2022/04/21 13:05:49;;;;;;;13.02;8.57;;;20.90;43.10;;;;;;4966191;28;20364;-60
2022/04/21 13:08:16;;;;;;;13.35;9.18;;;20.90;42.00;;;;;;4971646;28;20048;-60
2022/04/21 13:10:44;;;;;;;14.07;9.18;;;21.00;43.90;;;;;;4968277;28;20041;-60
2022/04/21 13:13:11;;;;;;;10.63;7.43;;;21.10;42.40;;;;;;4966906;28;20048;-59
2022/04/21 13:15:38;;;;;;;9.68;7.60;;;21.10;42.60;;;;;;4973927;28;20910;-60
2022/04/21 13:18:05;;;;;;;14.45;8.55;;;21.00;42.80;;;;;;4990038;28;20138;-60
2022/04/21 13:23:18;;;;;;;11.73;7.97;;;20.90;43.40;;;;;;4971167;28;20207;-61
2022/04/21 13:25:45;;;;;;;12.57;8.02;;;20.90;42.90;;;;;;4967380;28;20044;-60
2022/04/21 13:28:12;;;;;;;13.68;8.70;;;20.80;41.90;;;;;;4953289;28;20037;-60
2022/04/21 13:30:39;;;;;;;9.52;7.88;;;20.70;42.40;;;;;;4968257;28;20264;-60
2022/04/21 13:33:22;;;;;;;14.18;10.02;;;20.60;43.60;;;;;;4966011;28;20268;-61
2022/04/21 13:35:51;;;;;;;14.07;8.10;;;20.50;42.50;;;;;;4968937;28;20038;-59
2022/04/21 13:38:19;;;;;;;11.07;8.18;;;20.40;42.60;;;;;;4967409;28;20037;-61
2022/04/21 13:40:46;;;;;;;10.43;8.75;;;20.10;42.60;;;;;;4975039;28;20376;-61
2022/04/21 13:43:13;;;;;;;14.43;8.65;;;19.90;43.60;;;;;;4987379;28;20550;-60
2022/04/21 13:46:01;;;;;;;14.15;9.02;;;19.80;43.10;;;;;;4948572;28;20145;-60
2022/04/21 13:48:28;;;;;;;11.27;9.10;;;19.60;42.90;;;;;;4973370;28;20068;-61
2022/04/21 13:50:55;;;;;;;13.95;9.30;;;19.70;43.60;;;;;;4968738;28;20536;-61
2022/04/21 13:53:22;;;;;;;12.25;9.23;;;19.50;42.70;;;;;;4974898;28;20120;-60
2022/04/21 13:55:50;;;;;;;14.30;9.13;;;19.40;43.50;;;;;;4976019;28;20122;-59
2022/04/21 13:58:17;;;;;;;12.60;9.00;;;19.10;43.10;;;;;;4971726;28;20866;-60
2022/04/21 14:00:45;;;;;;;14.70;8.48;;;19.10;44.70;;;;;;4985972;28;20049;-60
2022/04/21 14:03:13;;;;;;;13.15;8.18;;;19.10;45.00;;;;;;4986053;28;20041;-60
2022/04/21 14:05:40;;;;;;;12.38;9.05;;;19.30;45.30;;;;;;4985499;28;20243;-61
2022/04/21 14:08:09;;;;;;;14.60;8.30;;;19.30;43.30;;;;;;4983560;28;20041;-60
2022/04/21 14:10:36;;;;;;;13.88;8.32;;;19.00;45.60;;;;;;4985812;28;20042;-58
2022/04/21 14:13:04;;;;;;;16.80;9.57;;;18.90;45.00;;;;;;4982575;28;20042;-60
2022/04/21 14:15:32;;;;;;;15.27;9.85;;;18.80;43.50;;;;;;4990308;28;20340;-60
2022/04/21 14:18:00;;;;;;;13.07;9.38;;;18.70;45.50;;;;;;4982900;28;20041;-61
2022/04/21 14:20:27;;;;;;;12.10;8.52;;;18.50;44.90;;;;;;4997174;28;20767;-61
2022/04/21 14:22:54;;;;;;;11.93;8.88;;;18.50;46.40;;;;;;5004535;28;20195;-64
2022/04/21 14:25:21;;;;;;;15.68;7.65;;;18.60;46.30;;;;;;5005811;28;20051;-59
2022/04/21 14:27:49;;;;;;;12.73;9.50;;;18.70;46.20;;;;;;4987828;28;20437;-60